Time;durP1;ratioP1;P1;durP2;ratioP2;P2;SDS_P1;SDS_P2;PMS_P1;PMS_P2;Temp;Humidity;BMP_temperature;BMP_pressure;BME280_temperature;BME280_humidity;BME280_pressure;Samples;Min_cycle;Max_cycle;Signal;HPM_P1;HPM_P2
2022/01/01 00:00:47;;;;;;;10.48;5.43;;;20.40;59.00;;;;;;4435014;32;20070;-79
2022/01/01 00:03:13;;;;;;;10.43;5.38;;;20.40;59.10;;;;;;4438942;32;20101;-77
2022/01/01 00:05:40;;;;;;;10.70;5.03;;;20.40;59.10;;;;;;4430229;32;20082;-77
2022/01/01 00:08:07;;;;;;;10.70;5.25;;;20.40;59.10;;;;;;4427577;32;20490;-75
2022/01/01 00:10:33;;;;;;;12.18;5.80;;;20.40;59.10;;;;;;4428999;32;20529;-75
2022/01/01 00:12:59;;;;;;;12.63;5.45;;;20.50;59.30;;;;;;4428537;32;20714;-75
2022/01/01 00:15:25;;;;;;;8.77;5.30;;;20.50;59.40;;;;;;4428955;32;20643;-76
2022/01/01 00:17:51;;;;;;;11.65;5.40;;;20.40;59.40;;;;;;4428996;32;20074;-75
2022/01/01 00:20:17;;;;;;;24.05;8.98;;;20.40;59.40;;;;;;4415233;32;20063;-76
2022/01/01 00:22:44;;;;;;;25.98;8.88;;;20.40;59.40;;;;;;4443370;32;20137;-78
2022/01/01 00:25:11;;;;;;;28.90;11.40;;;20.40;59.40;;;;;;4425040;32;20164;-77
2022/01/01 00:27:37;;;;;;;27.85;11.20;;;20.40;59.40;;;;;;4442976;32;20167;-77
2022/01/01 00:30:07;;;;;;;31.77;11.35;;;20.40;59.50;;;;;;4427460;32;20500;-76
2022/01/01 00:32:35;;;;;;;32.03;12.40;;;20.40;59.60;;;;;;4427288;32;20110;-76
2022/01/01 00:35:01;;;;;;;30.52;12.00;;;20.30;59.60;;;;;;4428462;32;20086;-76
2022/01/01 00:37:27;;;;;;;27.63;10.88;;;20.30;59.70;;;;;;4414793;32;20300;-77
2022/01/01 00:39:55;;;;;;;26.48;11.23;;;20.30;59.60;;;;;;4429051;32;20216;-76
2022/01/01 00:42:22;;;;;;;27.70;10.50;;;20.30;59.70;;;;;;4429288;32;20386;-76
2022/01/01 00:44:48;;;;;;;28.27;10.80;;;20.30;59.70;;;;;;4427899;32;20208;-76
2022/01/01 00:47:13;;;;;;;30.13;10.68;;;20.30;59.80;;;;;;4432414;32;20456;-76
2022/01/01 00:49:39;;;;;;;29.05;11.00;;;20.20;59.80;;;;;;4428192;32;20086;-76
2022/01/01 00:52:05;;;;;;;25.83;10.23;;;20.20;59.80;;;;;;4431785;32;20140;-76
2022/01/01 00:54:31;;;;;;;25.27;10.27;;;20.20;59.80;;;;;;4428430;32;20082;-77
2022/01/01 00:56:57;;;;;;;30.33;10.35;;;20.20;59.90;;;;;;4430061;32;20070;-76
2022/01/01 00:59:24;;;;;;;22.27;10.02;;;20.10;59.80;;;;;;4427174;32;20073;-76
2022/01/01 01:01:50;;;;;;;26.88;10.63;;;20.10;59.80;;;;;;4413781;32;20101;-76
2022/01/01 01:04:16;;;;;;;22.70;9.73;;;20.10;60.00;;;;;;4434166;32;20142;-78
2022/01/01 01:06:42;;;;;;;19.75;9.10;;;20.10;60.00;;;;;;4426987;32;20223;-76
2022/01/01 01:09:08;;;;;;;25.67;9.77;;;20.10;60.10;;;;;;4444555;32;20509;-76
2022/01/01 01:11:42;;;;;;;22.52;10.02;;;20.10;60.00;;;;;;4442708;32;20140;-76
2022/01/01 01:14:10;;;;;;;20.80;9.32;;;20.00;60.00;;;;;;4442586;32;20631;-77
2022/01/01 01:16:36;;;;;;;17.55;8.45;;;20.00;60.00;;;;;;4444243;32;20082;-76
2022/01/01 01:19:03;;;;;;;25.80;9.77;;;20.00;60.00;;;;;;4427151;32;20228;-76
2022/01/01 01:21:29;;;;;;;19.92;8.90;;;20.00;60.90;;;;;;4427414;32;20219;-76
2022/01/01 01:23:55;;;;;;;21.20;9.18;;;20.00;60.10;;;;;;4427153;32;20094;-75
2022/01/01 01:26:22;;;;;;;22.60;9.95;;;20.00;60.10;;;;;;4427584;32;20428;-76
2022/01/01 01:28:50;;;;;;;21.45;9.45;;;20.00;60.10;;;;;;4430645;32;20472;-80
2022/01/01 01:31:17;;;;;;;23.05;9.43;;;20.00;60.10;;;;;;4426878;32;20085;-76
2022/01/01 01:33:44;;;;;;;19.40;9.02;;;19.90;60.10;;;;;;4440518;32;20161;-78
2022/01/01 01:36:11;;;;;;;24.02;8.80;;;19.90;60.10;;;;;;4430694;32;20216;-76
2022/01/01 01:38:37;;;;;;;19.35;8.90;;;19.90;60.00;;;;;;4443505;32;20092;-76
2022/01/01 01:41:05;;;;;;;17.17;9.10;;;19.90;60.10;;;;;;4445067;32;20211;-77
2022/01/01 01:43:31;;;;;;;19.08;8.77;;;19.90;60.10;;;;;;4443598;32;20089;-76
2022/01/01 01:46:02;;;;;;;17.00;8.45;;;19.90;60.20;;;;;;4430945;32;20066;-76
2022/01/01 01:48:28;;;;;;;15.55;8.68;;;19.80;60.10;;;;;;4445124;32;20212;-76
2022/01/01 01:50:56;;;;;;;15.32;7.95;;;19.80;60.10;;;;;;4429054;32;20138;-77
2022/01/01 01:53:22;;;;;;;18.23;8.73;;;19.80;60.10;;;;;;4443754;32;20086;-76
2022/01/01 01:55:49;;;;;;;17.98;8.45;;;19.80;60.10;;;;;;4444980;32;20393;-83
2022/01/01 01:58:15;;;;;;;19.45;8.88;;;19.80;60.10;;;;;;4429053;32;20113;-76
2022/01/01 02:03:25;;;;;;;16.15;8.07;;;19.80;60.10;;;;;;4440637;32;20779;-76
2022/01/01 02:05:52;;;;;;;15.50;7.97;;;19.80;60.10;;;;;;4447041;32;20105;-82
2022/01/01 02:08:19;;;;;;;14.95;7.38;;;19.80;60.20;;;;;;4428959;32;20136;-77
2022/01/01 02:10:51;;;;;;;14.45;8.02;;;19.70;60.10;;;;;;4429016;32;20104;-76
2022/01/01 02:13:33;;;;;;;15.85;8.93;;;19.70;60.10;;;;;;4443249;32;20137;-77
2022/01/01 02:18:52;;;;;;;16.02;8.27;;;19.70;60.10;;;;;;4433494;32;20164;-77
2022/01/01 02:21:20;;;;;;;15.32;8.23;;;19.70;60.10;;;;;;4444833;32;20105;-76
2022/01/01 02:23:47;;;;;;;14.23;7.82;;;19.70;60.20;;;;;;4444816;32;20100;-77
2022/01/01 02:26:15;;;;;;;16.25;8.15;;;19.60;61.00;;;;;;4444724;32;20798;-77
2022/01/01 02:28:43;;;;;;;16.63;8.20;;;19.70;60.20;;;;;;4431566;32;20090;-76
2022/01/01 02:31:09;;;;;;;13.45;7.13;;;19.60;60.20;;;;;;4431870;32;20097;-76
2022/01/01 02:33:43;;;;;;;15.38;7.93;;;19.60;60.20;;;;;;4432734;32;20089;-76
2022/01/01 02:36:09;;;;;;;13.10;7.68;;;19.60;60.20;;;;;;4431452;32;20104;-76
2022/01/01 02:38:36;;;;;;;15.23;7.53;;;19.60;60.20;;;;;;4445709;32;20133;-76
2022/01/01 02:41:03;;;;;;;17.88;8.20;;;19.60;60.20;;;;;;4444242;32;20093;-76
2022/01/01 02:43:31;;;;;;;15.18;8.45;;;19.60;60.20;;;;;;4446641;32;20065;-76
2022/01/01 02:45:57;;;;;;;15.90;7.97;;;19.60;60.20;;;;;;4430014;32;20108;-76
2022/01/01 02:48:23;;;;;;;12.27;7.45;;;19.60;60.20;;;;;;4426044;32;20133;-76
2022/01/01 02:50:52;;;;;;;12.18;8.13;;;19.50;60.20;;;;;;4444350;32;20272;-77
2022/01/01 02:53:17;;;;;;;13.00;7.43;;;19.50;61.10;;;;;;4444083;32;20089;-76
2022/01/01 02:55:44;;;;;;;16.30;7.97;;;19.50;60.20;;;;;;4430461;32;20055;-76
2022/01/01 02:58:12;;;;;;;13.48;8.40;;;19.50;60.20;;;;;;4417619;32;20081;-76
2022/01/01 03:00:38;;;;;;;15.45;8.18;;;19.50;60.20;;;;;;4431647;32;20480;-76
2022/01/01 03:03:04;;;;;;;13.82;8.02;;;19.50;60.20;;;;;;4445126;32;20180;-76
2022/01/01 03:05:31;;;;;;;15.02;7.85;;;19.50;60.20;;;;;;4445564;32;20543;-76
2022/01/01 03:07:58;;;;;;;12.43;7.32;;;19.50;60.20;;;;;;4445349;32;20094;-82
2022/01/01 03:10:24;;;;;;;13.68;7.88;;;19.50;60.20;;;;;;4445551;32;20130;-77
2022/01/01 03:12:50;;;;;;;15.68;7.72;;;19.50;60.20;;;;;;4445306;32;20077;-77
2022/01/01 03:15:16;;;;;;;15.48;7.28;;;19.50;60.20;;;;;;4431327;32;20100;-76
2022/01/01 03:17:42;;;;;;;13.27;7.13;;;19.40;60.20;;;;;;4445575;32;20070;-76
2022/01/01 03:20:09;;;;;;;14.60;7.15;;;19.40;60.20;;;;;;4444707;32;20086;-76
2022/01/01 03:22:35;;;;;;;16.05;7.72;;;19.40;60.20;;;;;;4418499;32;20105;-76
2022/01/01 03:25:01;;;;;;;13.00;7.78;;;19.40;60.20;;;;;;4418179;32;20571;-79
2022/01/01 03:27:27;;;;;;;17.33;7.72;;;19.40;60.20;;;;;;4418677;32;20718;-76
2022/01/01 03:29:53;;;;;;;17.45;8.40;;;19.40;60.20;;;;;;4431081;32;20086;-76
2022/01/01 03:32:18;;;;;;;13.18;7.22;;;19.40;60.20;;;;;;4430890;32;20167;-76
2022/01/01 03:34:44;;;;;;;12.98;7.85;;;19.40;60.20;;;;;;4418477;32;20204;-76
2022/01/01 03:37:11;;;;;;;14.07;7.25;;;19.40;60.20;;;;;;4444678;32;20082;-76
2022/01/01 03:39:36;;;;;;;16.48;8.10;;;19.40;60.20;;;;;;4444995;32;20578;-76
2022/01/01 03:42:03;;;;;;;12.77;6.90;;;19.40;60.20;;;;;;4430628;32;20279;-81
2022/01/01 03:44:28;;;;;;;15.70;7.68;;;19.30;60.10;;;;;;4431184;32;20504;-76
2022/01/01 03:47:02;;;;;;;14.38;7.25;;;19.30;60.10;;;;;;4445105;32;20176;-76
2022/01/01 03:49:28;;;;;;;12.55;6.75;;;19.30;60.20;;;;;;4431073;32;20074;-76
2022/01/01 03:51:54;;;;;;;13.77;7.82;;;19.30;60.10;;;;;;4418288;32;20223;-76
2022/01/01 03:54:20;;;;;;;14.52;7.50;;;19.30;61.00;;;;;;4444567;32;20089;-76
2022/01/01 03:56:46;;;;;;;14.63;8.07;;;19.30;60.20;;;;;;4430941;32;20082;-76
2022/01/01 03:59:11;;;;;;;13.27;7.82;;;19.30;60.10;;;;;;4444035;32;20081;-76
2022/01/01 04:01:37;;;;;;;14.40;7.72;;;19.30;60.20;;;;;;4444561;32;20078;-76
2022/01/01 04:04:03;;;;;;;15.90;7.85;;;19.30;60.20;;;;;;4444666;32;20165;-82
2022/01/01 04:06:29;;;;;;;12.52;7.90;;;19.30;60.20;;;;;;4430339;32;20070;-77
2022/01/01 04:08:55;;;;;;;14.80;8.00;;;19.30;60.20;;;;;;4430519;32;20175;-76
2022/01/01 04:11:22;;;;;;;15.20;7.85;;;19.30;60.20;;;;;;4430332;32;20100;-76
2022/01/01 04:13:48;;;;;;;13.45;7.70;;;19.30;60.10;;;;;;4430811;32;20074;-76
2022/01/01 04:16:16;;;;;;;13.27;7.70;;;19.30;60.20;;;;;;4444253;32;20419;-76
2022/01/01 04:18:42;;;;;;;13.23;7.95;;;19.20;60.10;;;;;;4444552;32;20066;-76
2022/01/01 04:21:09;;;;;;;15.75;8.18;;;19.20;61.00;;;;;;4444403;32;20132;-82
2022/01/01 04:23:37;;;;;;;15.85;7.43;;;19.30;60.10;;;;;;4417957;32;20416;-76
2022/01/01 04:26:03;;;;;;;14.60;7.93;;;19.20;60.10;;;;;;4444169;32;20252;-76
2022/01/01 04:28:29;;;;;;;17.10;8.18;;;19.30;60.10;;;;;;4430269;32;20224;-76
2022/01/01 04:30:55;;;;;;;14.15;7.70;;;19.20;60.10;;;;;;4430356;32;20156;-76
2022/01/01 04:33:21;;;;;;;14.23;8.05;;;19.20;60.20;;;;;;4443962;32;20113;-76
2022/01/01 04:35:47;;;;;;;16.50;8.07;;;19.20;60.10;;;;;;4444160;32;20132;-76
2022/01/01 04:38:46;;;;;;;13.07;7.50;;;19.20;60.10;;;;;;4430120;32;20164;-76
2022/01/01 04:41:11;;;;;;;16.92;7.95;;;19.20;60.10;;;;;;4441833;32;20078;-76
2022/01/01 04:43:38;;;;;;;17.33;7.97;;;19.20;60.10;;;;;;4444065;32;20124;-76
2022/01/01 04:46:04;;;;;;;12.82;7.68;;;19.20;60.10;;;;;;4444356;32;20382;-77
2022/01/01 04:48:30;;;;;;;14.18;8.00;;;19.20;60.10;;;;;;4443925;32;20559;-76
2022/01/01 04:50:56;;;;;;;17.02;8.50;;;19.20;60.10;;;;;;4444010;32;20078;-76
2022/01/01 04:53:22;;;;;;;14.55;7.32;;;19.20;60.20;;;;;;4417360;32;20085;-76
2022/01/01 04:55:49;;;;;;;18.23;8.50;;;19.20;60.10;;;;;;4430371;32;20070;-76
2022/01/01 04:58:15;;;;;;;18.42;8.07;;;19.10;60.10;;;;;;4429853;32;20118;-77
2022/01/01 05:00:42;;;;;;;14.82;8.10;;;19.10;60.10;;;;;;4430182;32;20082;-76
2022/01/01 05:03:08;;;;;;;16.90;7.85;;;19.10;60.10;;;;;;4444270;32;20086;-77
2022/01/01 05:05:33;;;;;;;16.77;8.23;;;19.10;60.10;;;;;;4430032;32;20078;-76
2022/01/01 05:07:59;;;;;;;15.25;7.70;;;19.10;60.10;;;;;;4417166;32;20132;-76
2022/01/01 05:10:25;;;;;;;16.52;7.55;;;19.10;60.20;;;;;;4431331;32;20066;-76
2022/01/01 05:12:52;;;;;;;16.80;7.72;;;19.10;60.10;;;;;;4433220;32;20093;-77
2022/01/01 05:15:18;;;;;;;13.77;7.68;;;19.10;60.20;;;;;;4447058;32;20084;-76
2022/01/01 05:17:44;;;;;;;14.93;7.28;;;19.10;60.20;;;;;;4447275;32;20567;-76
2022/01/01 05:20:10;;;;;;;14.85;7.55;;;19.10;60.20;;;;;;4447329;32;20173;-76
2022/01/01 05:22:37;;;;;;;14.63;7.90;;;19.10;60.20;;;;;;4446867;32;20632;-76
2022/01/01 05:25:03;;;;;;;14.50;7.28;;;19.10;60.20;;;;;;4447060;32;20207;-76
2022/01/01 05:27:32;;;;;;;14.63;7.85;;;19.10;60.20;;;;;;4432638;32;20419;-75
2022/01/01 05:29:58;;;;;;;16.20;8.52;;;19.10;61.10;;;;;;4447076;32;20092;-76
2022/01/01 05:32:24;;;;;;;13.07;6.93;;;19.10;60.20;;;;;;4446808;32;20440;-77
2022/01/01 05:34:50;;;;;;;14.13;7.57;;;19.10;60.20;;;;;;4432937;32;20066;-76
2022/01/01 05:37:15;;;;;;;15.48;7.57;;;19.00;60.20;;;;;;4432825;32;20078;-76
2022/01/01 05:39:41;;;;;;;15.13;8.15;;;19.10;60.20;;;;;;4415804;32;20200;-76
2022/01/01 05:42:08;;;;;;;14.55;7.28;;;19.00;60.20;;;;;;4430105;32;20093;-76
2022/01/01 05:44:34;;;;;;;12.10;7.30;;;19.00;60.20;;;;;;4422184;32;20116;-76
2022/01/01 05:47:00;;;;;;;11.85;7.00;;;19.00;60.20;;;;;;4419495;32;20515;-76
2022/01/01 05:49:25;;;;;;;12.98;7.55;;;19.00;60.20;;;;;;4426225;32;20096;-76
2022/01/01 05:51:53;;;;;;;14.10;7.63;;;19.00;60.20;;;;;;4445372;32;20093;-77
2022/01/01 05:54:19;;;;;;;13.82;7.57;;;19.00;60.30;;;;;;4442481;32;20070;-80
2022/01/01 05:56:45;;;;;;;14.95;7.60;;;19.00;60.30;;;;;;4432435;32;20248;-76
2022/01/01 05:59:11;;;;;;;14.93;7.50;;;19.00;60.30;;;;;;4430512;32;20097;-76
2022/01/01 06:01:36;;;;;;;16.75;7.78;;;19.00;60.20;;;;;;4418529;32;20168;-76
2022/01/01 06:04:02;;;;;;;15.60;7.85;;;19.00;60.20;;;;;;4431573;32;20070;-76
2022/01/01 06:06:28;;;;;;;16.88;7.90;;;19.00;60.20;;;;;;4432340;32;20141;-78
2022/01/01 06:08:54;;;;;;;14.63;7.95;;;19.00;60.30;;;;;;4432467;32;20109;-76
2022/01/01 06:11:20;;;;;;;13.98;7.90;;;19.00;60.30;;;;;;4432472;32;20055;-76
2022/01/01 06:13:47;;;;;;;14.65;8.00;;;18.90;60.20;;;;;;4418531;32;20062;-76
2022/01/01 06:16:14;;;;;;;15.98;8.18;;;18.90;60.20;;;;;;4429302;32;20228;-76
2022/01/01 06:18:40;;;;;;;12.93;7.25;;;18.90;60.20;;;;;;4433029;32;20228;-76
2022/01/01 06:21:05;;;;;;;15.40;7.40;;;18.90;60.30;;;;;;4429792;32;20492;-76
2022/01/01 06:23:33;;;;;;;17.73;7.85;;;18.90;60.30;;;;;;4431964;32;20216;-76
2022/01/01 06:25:59;;;;;;;15.18;7.63;;;18.90;60.30;;;;;;4417751;32;20525;-76
2022/01/01 06:28:25;;;;;;;15.02;7.90;;;18.90;60.30;;;;;;4430066;32;20571;-81
2022/01/01 06:30:50;;;;;;;15.15;7.93;;;18.90;60.30;;;;;;4431048;32;20062;-76
2022/01/01 06:33:18;;;;;;;16.33;7.97;;;18.90;60.30;;;;;;4434390;32;20081;-76
2022/01/01 06:35:45;;;;;;;16.00;7.72;;;18.90;60.20;;;;;;4431938;32;20085;-76
2022/01/01 06:38:12;;;;;;;14.20;7.45;;;18.90;60.30;;;;;;4430285;32;20078;-76
2022/01/01 06:40:41;;;;;;;16.40;7.95;;;18.90;60.30;;;;;;4417300;32;20108;-76
2022/01/01 06:43:09;;;;;;;15.63;8.15;;;18.90;60.40;;;;;;4430531;32;20084;-76
2022/01/01 06:45:35;;;;;;;12.43;7.15;;;18.90;60.30;;;;;;4429526;32;20122;-76
2022/01/01 06:48:01;;;;;;;14.02;7.95;;;18.90;60.30;;;;;;4416064;32;20508;-76
2022/01/01 06:50:27;;;;;;;14.20;7.47;;;18.90;60.30;;;;;;4434525;32;20174;-81
2022/01/01 06:52:53;;;;;;;14.02;7.68;;;18.90;60.30;;;;;;4429138;32;20075;-76
2022/01/01 06:55:19;;;;;;;15.02;7.53;;;18.90;60.40;;;;;;4432424;32;20058;-76
2022/01/01 06:57:45;;;;;;;13.88;7.53;;;18.90;60.40;;;;;;4429876;32;20110;-76
2022/01/01 07:00:13;;;;;;;15.45;7.47;;;18.80;60.30;;;;;;4428832;32;20216;-76
2022/01/01 07:02:45;;;;;;;13.35;7.25;;;18.80;60.30;;;;;;4429864;32;20090;-76
2022/01/01 07:05:12;;;;;;;12.07;7.40;;;18.80;60.30;;;;;;4429895;32;20093;-76
2022/01/01 07:07:38;;;;;;;13.73;7.50;;;18.80;60.30;;;;;;4429565;32;20231;-76
2022/01/01 07:10:07;;;;;;;14.50;7.78;;;18.80;60.40;;;;;;4418707;32;20216;-77
2022/01/01 07:12:34;;;;;;;11.95;6.95;;;18.80;60.40;;;;;;4428829;32;20164;-77
2022/01/01 07:15:02;;;;;;;12.02;7.18;;;18.80;60.40;;;;;;4437434;32;20084;-76
2022/01/01 07:17:27;;;;;;;11.35;6.70;;;18.80;60.40;;;;;;4455643;32;20069;-76
2022/01/01 07:19:53;;;;;;;15.75;7.97;;;18.80;60.40;;;;;;4443622;32;20487;-76
2022/01/01 07:22:19;;;;;;;13.10;7.47;;;18.80;60.40;;;;;;4444332;32;20070;-76
2022/01/01 07:24:45;;;;;;;11.68;6.88;;;18.80;60.40;;;;;;4431207;32;20118;-76
2022/01/01 07:27:12;;;;;;;13.00;7.38;;;18.80;60.40;;;;;;4445353;32;20062;-76
2022/01/01 07:29:39;;;;;;;12.93;7.18;;;18.80;60.40;;;;;;4418129;32;20105;-76
2022/01/01 07:32:05;;;;;;;13.35;6.88;;;18.80;60.40;;;;;;4431089;32;20110;-76
2022/01/01 07:34:31;;;;;;;12.35;7.00;;;18.80;60.40;;;;;;4431179;32;20195;-77
2022/01/01 07:36:57;;;;;;;12.57;6.30;;;18.70;60.30;;;;;;4431176;32;20232;-76
2022/01/01 07:39:23;;;;;;;12.80;7.10;;;18.80;60.40;;;;;;4418564;32;20515;-75
2022/01/01 07:41:49;;;;;;;11.55;6.70;;;18.70;60.40;;;;;;4430873;32;20096;-76
2022/01/01 07:44:14;;;;;;;11.40;6.88;;;18.80;60.40;;;;;;4442194;32;20157;-76
2022/01/01 07:46:40;;;;;;;11.45;6.38;;;18.70;60.40;;;;;;4425109;32;20077;-76
2022/01/01 07:49:06;;;;;;;9.77;6.38;;;18.70;60.30;;;;;;4444864;32;20106;-76
2022/01/01 07:51:32;;;;;;;8.80;6.10;;;18.70;60.40;;;;;;4418295;32;20154;-76
2022/01/01 07:53:59;;;;;;;9.45;6.60;;;18.70;60.40;;;;;;4444448;32;20097;-76
2022/01/01 07:56:31;;;;;;;11.95;6.65;;;18.70;60.40;;;;;;4431659;32;20108;-75
2022/01/01 07:58:56;;;;;;;11.38;6.30;;;18.70;60.40;;;;;;4444466;32;20509;-75
2022/01/01 08:01:22;;;;;;;10.40;6.63;;;18.70;60.40;;;;;;4430593;32;20413;-75
2022/01/01 08:03:49;;;;;;;10.30;6.57;;;18.70;60.40;;;;;;4430637;32;20125;-76
2022/01/01 08:06:16;;;;;;;8.05;5.28;;;18.70;60.40;;;;;;4444990;32;20130;-76
2022/01/01 08:08:42;;;;;;;10.13;6.15;;;18.70;60.40;;;;;;4430380;32;20489;-76
2022/01/01 08:11:08;;;;;;;10.77;6.50;;;18.70;60.50;;;;;;4427766;32;20125;-76
2022/01/01 08:13:36;;;;;;;10.75;6.40;;;18.70;60.40;;;;;;4441648;32;20382;-75
2022/01/01 08:16:03;;;;;;;11.65;6.68;;;18.60;60.40;;;;;;4440190;32;20074;-75
2022/01/01 08:18:31;;;;;;;12.32;6.10;;;18.70;60.50;;;;;;4430731;32;20082;-76
2022/01/01 08:20:59;;;;;;;9.95;6.10;;;18.60;60.40;;;;;;4430851;32;20776;-76
2022/01/01 08:23:25;;;;;;;11.63;6.43;;;18.60;60.40;;;;;;4430339;32;20128;-75
2022/01/01 08:25:51;;;;;;;9.13;6.10;;;18.60;60.40;;;;;;4430225;32;20140;-76
2022/01/01 08:28:17;;;;;;;9.88;6.28;;;18.60;60.40;;;;;;4430649;32;20408;-76
2022/01/01 08:30:43;;;;;;;9.35;5.43;;;18.60;60.40;;;;;;4443843;32;20567;-76
2022/01/01 08:33:08;;;;;;;8.80;6.13;;;18.60;61.30;;;;;;4430477;32;20059;-76
2022/01/01 08:35:35;;;;;;;9.02;5.85;;;18.60;60.50;;;;;;4444452;32;20082;-77
2022/01/01 08:38:04;;;;;;;9.77;5.97;;;18.60;60.50;;;;;;4430193;32;20717;-76
2022/01/01 08:40:31;;;;;;;10.20;5.93;;;18.70;60.50;;;;;;4430189;32;20073;-76
2022/01/01 08:42:57;;;;;;;9.70;6.07;;;18.60;61.30;;;;;;4443947;32;20394;-76
2022/01/01 08:45:24;;;;;;;7.80;5.22;;;18.60;60.40;;;;;;4430084;32;20117;-75
2022/01/01 08:47:50;;;;;;;8.68;5.68;;;18.60;60.50;;;;;;4417085;32;20098;-77
2022/01/01 08:50:16;;;;;;;8.52;5.47;;;18.60;60.50;;;;;;4443957;32;20148;-76
2022/01/01 08:52:42;;;;;;;10.27;5.93;;;18.60;60.50;;;;;;4444022;32;20081;-80
2022/01/01 08:55:08;;;;;;;8.82;5.80;;;18.60;60.50;;;;;;4430213;32;20405;-76
2022/01/01 08:57:34;;;;;;;8.48;5.28;;;18.60;60.50;;;;;;4444099;32;20078;-76
2022/01/01 09:00:02;;;;;;;9.10;5.45;;;18.60;60.50;;;;;;4429945;32;20140;-76
2022/01/01 09:02:27;;;;;;;8.65;5.55;;;18.60;60.50;;;;;;4443781;32;20094;-72
2022/01/01 09:04:53;;;;;;;13.15;5.78;;;18.60;60.50;;;;;;4443757;32;20199;-72
2022/01/01 09:07:19;;;;;;;11.45;6.07;;;18.60;60.60;;;;;;4444130;32;20504;-72
2022/01/01 09:09:46;;;;;;;13.70;7.82;;;18.60;60.60;;;;;;4429526;32;20128;-77
2022/01/01 09:12:12;;;;;;;14.38;7.95;;;18.60;60.70;;;;;;4429854;32;20088;-73
2022/01/01 09:14:38;;;;;;;16.88;7.40;;;18.60;60.80;;;;;;4417394;32;20114;-73
2022/01/01 09:17:06;;;;;;;16.48;7.97;;;18.60;61.00;;;;;;4429935;32;20121;-75
2022/01/01 09:19:33;;;;;;;10.90;6.70;;;18.60;61.20;;;;;;4444148;32;20074;-74
2022/01/01 09:21:58;;;;;;;13.35;7.20;;;18.50;61.30;;;;;;4443723;32;20086;-74
2022/01/01 09:24:24;;;;;;;16.08;7.70;;;18.50;61.40;;;;;;4429769;32;20086;-74
2022/01/01 09:26:51;;;;;;;16.83;7.35;;;18.50;61.50;;;;;;4443651;32;20164;-73
2022/01/01 09:29:18;;;;;;;16.55;7.85;;;18.60;61.60;;;;;;4429910;32;20086;-74
2022/01/01 09:31:45;;;;;;;11.35;6.97;;;18.50;61.60;;;;;;4417328;32;20082;-73
2022/01/01 09:34:11;;;;;;;11.93;6.78;;;18.60;61.70;;;;;;4443562;32;20468;-74
2022/01/01 09:36:37;;;;;;;11.10;6.57;;;18.60;61.60;;;;;;4429983;32;20086;-75
2022/01/01 09:39:05;;;;;;;11.98;6.25;;;18.60;61.60;;;;;;4442572;32;20089;-74
2022/01/01 09:41:31;;;;;;;12.65;6.20;;;18.60;62.40;;;;;;4441080;32;20087;-74
2022/01/01 09:43:58;;;;;;;9.80;5.60;;;18.70;61.50;;;;;;4428901;32;20081;-74
2022/01/01 09:46:26;;;;;;;10.65;5.50;;;18.70;61.40;;;;;;4442906;32;20537;-75
2022/01/01 09:48:52;;;;;;;13.88;6.18;;;18.80;61.30;;;;;;4441735;32;20484;-81
2022/01/01 09:51:19;;;;;;;12.00;6.00;;;18.90;61.10;;;;;;4442572;32;20598;-75
2022/01/01 09:53:45;;;;;;;11.52;5.45;;;18.90;60.90;;;;;;4443396;32;20117;-75
2022/01/01 09:56:11;;;;;;;10.45;5.43;;;19.10;60.70;;;;;;4429282;32;20086;-74
2022/01/01 09:58:38;;;;;;;11.15;5.10;;;19.20;60.40;;;;;;4446302;32;20136;-75
2022/01/01 10:01:06;;;;;;;11.73;5.25;;;19.30;60.10;;;;;;4432209;32;20494;-76
2022/01/01 10:03:47;;;;;;;11.13;5.45;;;19.40;59.90;;;;;;4445534;32;20089;-72
2022/01/01 10:06:18;;;;;;;8.65;4.68;;;19.50;59.70;;;;;;4446064;32;20152;-73
2022/01/01 10:08:55;;;;;;;13.48;6.05;;;19.60;59.40;;;;;;4446258;32;20143;-72
2022/01/01 10:11:21;;;;;;;8.02;4.70;;;19.80;59.20;;;;;;4432242;32;20085;-73
2022/01/01 10:13:47;;;;;;;7.28;4.53;;;19.90;58.90;;;;;;4446256;32;20082;-73
2022/01/01 10:16:14;;;;;;;11.73;5.70;;;20.00;58.60;;;;;;4445634;32;20106;-74
2022/01/01 10:18:46;;;;;;;8.70;4.55;;;20.10;58.20;;;;;;4432272;32;20081;-73
2022/01/01 10:21:17;;;;;;;9.25;4.18;;;20.30;58.00;;;;;;4445580;32;20082;-73
2022/01/01 10:23:46;;;;;;;6.45;3.90;;;20.40;57.70;;;;;;4446137;32;20516;-74
2022/01/01 10:29:14;;;;;;;7.40;4.55;;;20.60;57.10;;;;;;4445167;32;20223;-73
2022/01/01 10:31:55;;;;;;;9.38;4.32;;;20.70;56.80;;;;;;4446120;32;20074;-72
2022/01/01 10:34:24;;;;;;;8.57;4.03;;;20.80;56.70;;;;;;4445504;32;20098;-73
2022/01/01 10:36:52;;;;;;;7.93;4.25;;;20.80;56.40;;;;;;4445956;32;20058;-72
2022/01/01 10:39:18;;;;;;;9.77;3.95;;;20.90;56.30;;;;;;4431590;32;20092;-73
2022/01/01 10:42:00;;;;;;;6.20;3.30;;;21.00;56.40;;;;;;4445737;32;20074;-72
2022/01/01 10:44:33;;;;;;;6.95;3.65;;;21.00;56.20;;;;;;4445769;32;20251;-73
2022/01/01 10:47:07;;;;;;;8.30;3.95;;;21.10;56.10;;;;;;4431813;32;20093;-78
2022/01/01 10:52:18;;;;;;;9.95;4.22;;;21.20;55.90;;;;;;4445514;32;20098;-73
2022/01/01 10:54:51;;;;;;;9.68;3.78;;;21.30;56.00;;;;;;4445696;32;20078;-73
2022/01/01 10:57:34;;;;;;;7.93;3.63;;;21.30;56.00;;;;;;4431226;32;20580;-74
2022/01/01 11:00:17;;;;;;;8.95;4.30;;;21.30;56.00;;;;;;4445580;32;20089;-78
2022/01/01 11:03:01;;;;;;;10.10;4.83;;;21.30;56.10;;;;;;4445681;32;20136;-72
2022/01/01 11:05:32;;;;;;;11.18;4.90;;;21.30;56.30;;;;;;4431436;32;20428;-72
2022/01/01 11:07:59;;;;;;;9.50;4.40;;;21.20;56.40;;;;;;4444697;32;20095;-74
2022/01/01 11:10:26;;;;;;;13.95;4.72;;;21.10;56.60;;;;;;4431178;32;20082;-73
2022/01/01 11:12:53;;;;;;;9.13;4.50;;;21.10;56.80;;;;;;4445049;32;20504;-73
2022/01/01 11:15:20;;;;;;;7.65;4.35;;;21.00;57.00;;;;;;4445042;32;20235;-74
2022/01/01 11:17:47;;;;;;;8.85;4.10;;;21.00;57.30;;;;;;4445488;32;20097;-74
2022/01/01 11:20:15;;;;;;;6.78;3.95;;;20.90;57.40;;;;;;4444913;32;20082;-74
2022/01/01 11:22:43;;;;;;;7.10;3.92;;;20.90;57.70;;;;;;4431381;32;20089;-74
2022/01/01 11:25:09;;;;;;;7.85;3.83;;;20.80;57.80;;;;;;4445082;32;20093;-79
2022/01/01 11:27:35;;;;;;;6.75;3.65;;;20.80;58.00;;;;;;4444271;32;20531;-73
2022/01/01 11:30:11;;;;;;;8.50;3.88;;;20.70;58.10;;;;;;4444342;32;20090;-73
2022/01/01 11:32:39;;;;;;;8.02;3.67;;;20.70;58.20;;;;;;4426558;32;20157;-74
2022/01/01 11:35:17;;;;;;;6.55;3.60;;;20.70;58.40;;;;;;4442248;32;20538;-80
2022/01/01 11:37:53;;;;;;;6.93;3.60;;;20.70;58.50;;;;;;4445182;32;20069;-73
2022/01/01 11:40:19;;;;;;;7.30;3.53;;;20.70;58.60;;;;;;4444333;32;20838;-74
2022/01/01 11:42:46;;;;;;;6.30;3.50;;;20.60;58.60;;;;;;4430852;32;20077;-75
2022/01/01 11:45:32;;;;;;;6.55;3.38;;;20.60;58.70;;;;;;4430524;32;20086;-74
2022/01/01 11:48:39;;;;;;;7.47;3.45;;;20.60;58.90;;;;;;4444812;32;20287;-75
2022/01/01 11:51:18;;;;;;;8.07;3.75;;;20.60;58.90;;;;;;4396881;32;20150;-76
2022/01/01 11:54:03;;;;;;;7.50;3.50;;;20.50;59.00;;;;;;4386084;32;20091;-75
2022/01/01 11:56:49;;;;;;;6.00;3.33;;;20.50;59.10;;;;;;4416657;32;20163;-74
2022/01/01 11:59:37;;;;;;;6.55;3.47;;;20.50;59.10;;;;;;4418163;32;20062;-73
2022/01/01 12:02:19;;;;;;;5.90;3.50;;;20.50;59.20;;;;;;4428743;32;20086;-74
2022/01/01 12:04:55;;;;;;;6.13;3.15;;;20.50;59.20;;;;;;4429438;32;20089;-73
2022/01/01 12:07:22;;;;;;;5.75;3.10;;;20.50;59.20;;;;;;4429017;32;20106;-73
2022/01/01 12:09:55;;;;;;;6.72;3.35;;;20.50;59.30;;;;;;4428590;32;20132;-72
2022/01/01 12:12:39;;;;;;;6.07;3.45;;;20.50;59.30;;;;;;4430575;32;20089;-72
2022/01/01 12:15:08;;;;;;;7.25;3.33;;;20.50;59.40;;;;;;4428575;32;20085;-74
2022/01/01 12:17:45;;;;;;;5.72;3.33;;;20.60;59.40;;;;;;4430392;32;20106;-73
2022/01/01 12:20:15;;;;;;;6.65;3.35;;;20.60;59.40;;;;;;4432163;32;20085;-74
2022/01/01 12:22:50;;;;;;;6.95;3.25;;;20.60;59.30;;;;;;4428844;32;20074;-73
2022/01/01 12:25:23;;;;;;;5.00;3.10;;;20.70;59.30;;;;;;4428505;32;20461;-73
2022/01/01 12:27:52;;;;;;;5.38;2.97;;;20.70;59.20;;;;;;4429228;32;20083;-71
2022/01/01 12:30:36;;;;;;;5.15;3.03;;;20.70;59.10;;;;;;4428422;32;20082;-73
2022/01/01 12:33:03;;;;;;;5.25;2.70;;;20.80;60.00;;;;;;4414800;32;20090;-73
2022/01/01 12:35:50;;;;;;;5.00;3.10;;;20.80;59.00;;;;;;4428765;32;20140;-72
2022/01/01 12:38:26;;;;;;;6.70;3.00;;;20.80;59.00;;;;;;4428929;32;20124;-79
2022/01/01 12:41:22;;;;;;;5.93;2.95;;;20.80;58.90;;;;;;4414219;32;20098;-74
2022/01/01 12:43:50;;;;;;;4.95;2.90;;;20.90;58.90;;;;;;4429055;32;20078;-75
2022/01/01 12:46:22;;;;;;;5.47;2.90;;;20.90;58.80;;;;;;4428665;32;20690;-79
2022/01/01 12:48:48;;;;;;;7.35;2.53;;;20.90;58.80;;;;;;4428943;32;20516;-73
2022/01/01 12:51:19;;;;;;;5.25;2.67;;;20.90;58.80;;;;;;4428477;32;20087;-73
2022/01/01 12:53:47;;;;;;;5.55;2.60;;;20.90;58.90;;;;;;4428902;32;20074;-77